Latest Weather Observations for Double Island Point

IDQ60801

Issued at 2:22 pm EST Wednesday 21 February 2024 (issued every 10 minutes, with the page automatically refreshed every 10 minutes)

About weather observations | Map of weather stations | Latest weather observations for QLD | Other Formats
Station Details ID: 040068 Name: DOUBLE ISLAND POINT LIGHTHOUSE Lat: -25.93 Lon: 153.19 Height: 95.64 m
Data from the previous 72 hours. | See also: Recent months at Double Island Point
Date/Time
EST
Temp
°C
App
Temp
°C
Dew
Point
°C
Rel
Hum
%
Delta-T
°C
Wind Press
QNH
hPa
Press
MSL
hPa
Rain since
9am
mm
Dir  Spd
km/h
Gust
km/h
Spd
kts
Gust
kts
21/02:00pm 27.6 28.0 22.5 74 3.5 SE 24 30 13 16 1012.3 1011.8 0.0
21/01:30pm 27.7 28.1 23.1 76 3.1 SE 26 32 14 17 1012.5 1012.0 0.0
21/01:00pm 27.6 27.6 23.0 76 3.1 SE 28 30 15 16 1013.0 1012.5 0.0
21/12:30pm 27.9 28.3 23.1 75 3.3 SSE 26 30 14 16 1013.3 1012.8 0.0
21/12:00pm 27.9 28.0 23.3 76 3.2 SSE 28 32 15 17 1013.8 1013.2 0.0
21/11:30am 27.5 27.9 23.1 77 3.0 SSE 26 32 14 17 1014.0 1013.4 0.0
21/11:00am 26.5 26.8 22.3 78 2.8 SSE 24 32 13 17 1014.4 1013.8 0.0
21/10:30am 27.0 27.8 22.4 76 3.1 SSE 22 30 12 16 1014.6 1014.0 0.0
21/10:00am 26.5 26.9 23.2 82 2.3 S 26 32 14 17 1014.9 1014.3 0.0
21/09:30am 26.0 26.2 22.7 82 2.2 S 26 35 14 19 1015.0 1014.4 0.0
21/09:00am 25.9 25.5 22.4 81 2.4 S 28 33 15 18 1015.0 1014.4 0.0
21/08:30am 25.8 26.1 22.9 84 2.0 S 26 32 14 17 1015.0 1014.4 0.0
21/08:00am 25.3 25.2 22.2 83 2.1 S 26 33 14 18 1014.7 1014.1 0.0
21/07:30am 24.9 25.7 22.4 86 1.7 S 22 30 12 16 1014.6 1014.0 0.0
21/07:00am 24.4 25.7 22.3 88 1.4 SSW 19 26 10 14 1014.4 1013.8 0.0
21/06:30am 23.8 24.3 21.9 89 1.3 SSW 22 26 12 14 1014.0 1013.4 0.0
21/06:00am 23.6 24.1 22.0 91 1.1 SSW 22 26 12 14 1013.7 1013.1 0.0
21/05:30am 23.6 24.7 22.0 91 1.1 SSW 19 20 10 11 1013.2 1012.7 0.0
21/05:00am 23.8 25.2 21.9 89 1.3 S 17 19 9 10 1013.1 1012.6 0.0
21/04:30am 24.3 25.9 21.4 84 1.9 S 15 17 8 9 1013.2 1012.7 0.0
21/04:00am 24.7 26.5 21.2 81 2.3 SSE 13 17 7 9 1013.2 1012.7 0.0
21/03:30am 24.8 26.2 21.1 80 2.4 SE 15 17 8 9 1013.0 1012.5 0.0
21/03:00am 24.8 26.2 21.1 80 2.4 SE 15 17 8 9 1012.9 1012.4 0.0
21/02:30am 24.9 26.7 21.2 80 2.4 SE 13 17 7 9 1012.8 1012.3 0.0
21/02:00am 24.9 26.6 21.0 79 2.6 SE 13 17 7 9 1013.0 1012.5 0.0
21/01:30am 25.0 26.8 21.1 79 2.6 ESE 13 17 7 9 1013.2 1012.7 0.0
21/01:00am 25.0 26.2 20.7 77 2.8 ESE 15 19 8 10 1013.5 1012.9 0.0
21/12:30am 25.1 26.0 20.8 77 2.8 ESE 17 20 9 11 1013.8 1013.2 0.0
21/12:00am 25.3 26.0 21.2 78 2.7 ESE 19 22 10 12 1014.0 1013.4 0.0
 
Date/Time
EST
Temp
°C
App
Temp
°C
Dew
Point
°C
Rel
Hum
%
Delta-T
°C
Wind Press
QNH
hPa
Press
MSL
hPa
Rain since
9am
mm
Dir  Spd
km/h
Gust
km/h
Spd
kts
Gust
kts
20/11:30pm 25.2 25.8 21.1 78 2.7 ESE 19 24 10 13 1014.0 1013.4 0.0
20/11:00pm 25.4 26.1 21.5 79 2.6 ESE 20 26 11 14 1014.0 1013.4 0.0
20/10:30pm 25.4 25.2 21.3 78 2.7 ESE 24 28 13 15 1014.2 1013.6 0.0
20/10:00pm 25.4 25.3 21.5 79 2.6 ESE 24 30 13 16 1014.2 1013.6 0.0
20/09:30pm 25.5 24.9 21.2 77 2.8 ESE 26 30 14 16 1014.4 1013.8 0.0
20/09:00pm 25.5 25.1 21.6 79 2.6 ESE 26 32 14 17 1014.2 1013.6 0.0
20/08:30pm 25.6 24.0 21.5 78 2.7 ESE 32 33 17 18 1014.0 1013.4 0.0
20/08:00pm 25.7 24.1 21.6 78 2.7 ESE 32 35 17 19 1013.6 1013.0 0.0
20/07:30pm 25.7 24.2 21.8 79 2.6 ESE 32 39 17 21 1013.3 1012.8 0.0
20/07:00pm 25.7 24.3 22.0 80 2.5 ESE 32 35 17 19 1013.1 1012.6 0.0
20/06:30pm 25.6 24.0 21.5 78 2.7 ESE 32 35 17 19 1013.0 1012.5 0.0
20/06:00pm 25.5 24.2 21.4 78 2.7 SE 30 35 16 19 1012.7 1012.2 0.0
20/05:30pm 25.5 24.3 21.6 79 2.6 SE 30 37 16 20 1012.6 1012.1 0.0
20/05:00pm 25.7 25.1 22.0 80 2.5 SE 28 35 15 19 1012.3 1011.8 0.0
20/04:30pm 25.8 25.3 22.1 80 2.5 SE 28 32 15 17 1012.2 1011.7 0.0
20/04:00pm 26.9 25.5 21.9 74 3.4 SE 32 35 17 19 1012.2 1011.7 0.0
20/03:30pm 26.9 25.6 22.1 75 3.2 SE 32 35 17 19 1012.3 1011.8 0.0
20/03:00pm 26.8 25.3 21.8 74 3.4 SE 32 35 17 19 1012.2 1011.7 0.0
20/02:30pm 26.9 26.3 21.9 74 3.4 SSE 28 32 15 17 1012.4 1011.9 0.0
20/02:00pm 27.3 26.9 22.3 74 3.4 SE 28 32 15 17 1012.6 1012.1 0.0
20/01:30pm 27.3 27.1 22.7 76 3.1 SSE 28 33 15 18 1012.7 1012.2 0.0
20/01:00pm 27.4 26.4 22.6 75 3.3 SSE 32 35 17 19 1013.2 1012.7 0.0
20/12:30pm 27.1 26.0 22.5 76 3.1 SSE 32 37 17 20 1013.5 1012.9 0.0
20/12:00pm 26.9 25.7 22.3 76 3.1 SSE 32 35 17 19 1013.8 1013.2 0.0
20/11:30am 26.8 25.7 22.4 77 3.0 SSE 32 35 17 19 1014.1 1013.5 0.0
20/11:00am 26.3 25.5 22.4 79 2.6 SSE 30 39 16 21 1014.3 1013.7 0.0
20/10:30am 26.6 26.6 23.1 81 2.4 SSE 28 39 15 21 1014.5 1013.9 0.0
20/10:00am 25.8 25.1 22.5 82 2.2 S 30 37 16 20 1014.5 1013.9 0.0
20/09:30am 25.6 25.0 22.7 84 2.0 S 30 39 16 21 1014.4 1013.8 0.0
20/09:00am 25.4 24.9 22.9 86 1.7 S 30 37 16 20 1014.3 1013.7 0.0
20/08:30am 24.9 24.4 22.2 85 1.8 S 28 33 15 18 1014.4 1013.8 0.0
20/08:00am 24.6 23.9 22.5 88 1.4 S 30 35 16 19 1014.2 1013.6 0.0
20/07:30am 24.1 22.9 22.2 89 1.3 S 32 35 17 19 1014.2 1013.6 0.0
20/07:00am 23.6 23.9 22.2 92 0.9 SSW 24 32 13 17 1014.1 1013.5 0.0
20/06:30am 23.8 24.2 22.4 92 0.9 SSW 24 30 13 16 1013.7 1013.1 0.0
20/06:00am 23.4 24.5 22.0 92 0.9 SSW 19 24 10 13 1013.7 1013.1 0.0
20/05:30am 24.3 25.4 21.2 83 2.0 SSE 17 20 9 11 1013.2 1012.7 0.0
20/05:00am 24.6 25.9 20.9 80 2.4 ESE 15 17 8 9 1013.1 1012.6 0.0
20/04:30am 24.6 25.4 19.9 75 3.0 ESE 15 17 8 9 1013.0 1012.5 0.0
20/04:00am 24.7 25.4 20.4 77 2.8 SE 17 19 9 10 1012.9 1012.4 0.0
20/03:30am 24.7 25.1 19.8 74 3.2 ESE 17 20 9 11 1012.8 1012.3 0.0
20/03:00am 24.8 25.1 19.6 73 3.4 ESE 17 20 9 11 1012.8 1012.3 0.0
20/02:30am 24.9 24.6 19.5 72 3.5 ESE 20 24 11 13 1013.0 1012.5 0.0
20/02:00am 24.9 24.4 19.9 74 3.2 ESE 22 26 12 14 1013.1 1012.6 0.0
20/01:30am 25.0 24.4 19.8 73 3.4 ESE 22 26 12 14 1013.6 1013.0 0.0
20/01:00am 25.0 24.5 20.0 74 3.3 SE 22 28 12 15 1014.0 1013.4 0.0
20/12:30am 25.1 24.2 19.9 73 3.4 ESE 24 30 13 16 1014.4 1013.8 0.0
20/12:00am 25.2 24.0 20.0 73 3.4 ESE 26 33 14 18 1014.4 1013.8 0.0
 
Date/Time
EST
Temp
°C
App
Temp
°C
Dew
Point
°C
Rel
Hum
%
Delta-T
°C
Wind Press
QNH
hPa
Press
MSL
hPa
Rain since
9am
mm
Dir  Spd
km/h
Gust
km/h
Spd
kts
Gust
kts
19/11:30pm 25.2 24.1 20.2 74 3.3 ESE 26 32 14 17 1014.6 1014.0 0.0
19/11:00pm 25.5 23.4 20.5 74 3.3 ESE 32 35 17 19 1014.6 1014.0 0.0
19/10:30pm 25.5 23.8 20.5 74 3.3 SE 30 35 16 19 1015.1 1014.5 0.0
19/10:00pm 25.6 23.8 21.1 76 3.0 ESE 32 37 17 20 1015.1 1014.5 0.0
19/09:30pm 25.6 24.9 21.1 76 3.0 ESE 26 32 14 17 1015.3 1014.7 0.0
19/09:00pm 25.6 24.2 20.4 73 3.4 ESE 28 32 15 17 1015.0 1014.4 0.0
19/08:30pm 25.6 23.8 20.4 73 3.4 ESE 30 35 16 19 1015.1 1014.5 0.0
19/08:00pm 25.6 23.4 20.4 73 3.4 ESE 32 35 17 19 1014.9 1014.3 0.0
19/07:30pm 25.6 23.4 20.4 73 3.4 ESE 32 37 17 20 1014.6 1014.0 0.0
19/07:00pm 25.8 24.2 20.1 71 3.7 SE 28 35 15 19 1014.2 1013.6 0.0
19/06:30pm 25.9 23.9 20.0 70 3.8 ESE 30 35 16 19 1014.0 1013.4 0.0
19/06:00pm 26.1 24.6 20.2 70 3.9 ESE 28 32 15 17 1013.9 1013.3 0.0
19/05:30pm 26.0 24.7 20.6 72 3.6 ESE 28 32 15 17 1013.6 1013.0 0.0
19/05:00pm 26.2 25.6 21.2 74 3.3 ESE 26 30 14 16 1013.6 1013.0 0.0
19/04:30pm 26.7 26.1 20.5 69 4.1 ESE 24 28 13 15 1013.3 1012.8 0.0
19/04:00pm 27.0 26.2 20.8 69 4.1 ESE 26 32 14 17 1013.2 1012.7 0.0
19/03:30pm 27.3 27.0 21.1 69 4.1 ESE 24 28 13 15 1013.3 1012.8 0.0
19/03:00pm 27.8 28.2 21.8 70 4.0 ESE 22 30 12 16 1013.8 1013.2 0.0
19/02:30pm 28.3 28.9 22.1 69 4.2 ESE 22 28 12 15 1014.1 1013.5 0.0
19/02:00pm 28.2 28.5 21.5 67 4.5 ESE 22 26 12 14 1014.4 1013.8 0.0
19/01:30pm 28.3 29.0 22.3 70 4.1 ESE 22 26 12 14 1015.1 1014.5 0.0
19/01:00pm 27.8 28.2 21.8 70 4.0 ESE 22 26 12 14 1015.2 1014.6 0.0
19/12:30pm 27.7 28.0 22.2 72 3.7 ESE 24 28 13 15 1015.5 1014.9 0.0
19/12:00pm 29.0 29.8 22.5 68 4.4 ESE 22 26 12 14 1015.6 1015.0 0.0
19/11:30am 28.9 29.8 22.6 69 4.3 ESE 22 26 12 14 1015.9 1015.3 0.0
19/11:00am 28.6 29.1 21.9 67 4.5 ESE 22 26 12 14 1016.0 1015.4 0.0
19/10:30am 28.5 28.7 22.0 68 4.4 ESE 24 28 13 15 1016.1 1015.5 0.0
19/10:00am 28.3 28.5 22.1 69 4.2 ESE 24 28 13 15 1015.9 1015.3 0.0
19/09:30am 27.7 27.6 22.9 75 3.3 SE 28 33 15 18 1015.9 1015.3 0.0
19/09:00am 27.7 28.0 21.5 69 4.1 ESE 22 28 12 15 1016.0 1015.4 0.0
19/08:30am 26.2 26.1 21.4 75 3.2 ESE 24 30 13 16 1015.9 1015.3 0.0
19/08:00am 27.6 27.3 21.9 71 3.8 ESE 26 30 14 16 1015.8 1015.2 0.0
19/07:30am 27.1 27.4 22.9 78 2.9 ESE 26 30 14 16 1015.5 1014.9 0.0
19/07:00am 26.8 25.7 21.1 71 3.8 ESE 28 33 15 18 1015.4 1014.8 0.0
19/06:30am 26.3 25.2 21.1 73 3.4 SE 28 33 15 18 1015.3 1014.7 0.0
19/06:00am 25.2 24.0 20.9 77 2.8 SE 28 33 15 18 1015.0 1014.4 0.0
19/05:30am 25.2 23.7 20.9 77 2.8 ESE 30 35 16 19 1014.7 1014.1 0.0
19/05:00am 25.2 24.4 20.9 77 2.8 ESE 26 32 14 17 1014.6 1014.0 0.0
19/04:30am 25.3 24.4 21.4 79 2.6 ESE 28 33 15 18 1014.5 1013.9 0.0
19/04:00am 25.3 23.7 20.8 76 3.0 ESE 30 33 16 18 1014.5 1013.9 0.0
19/03:30am 25.3 23.7 20.8 76 3.0 ESE 30 33 16 18 1014.4 1013.8 0.0
19/03:00am 25.4 24.9 21.5 79 2.6 ESE 26 30 14 16 1014.4 1013.8 0.0
19/02:30am 25.2 25.4 21.3 79 2.6 SE 22 30 12 16 1014.6 1014.0 0.0
19/02:00am 25.1 25.3 22.0 83 2.1 ESE 24 30 13 16 1014.8 1014.2 0.0
19/01:30am 24.7 23.6 21.8 84 1.9 SE 30 37 16 20 1015.0 1014.4 0.0
19/01:00am 25.3 25.5 22.0 82 2.2 ESE 24 28 13 15 1015.3 1014.7 0.0
19/12:30am 25.4 25.1 21.9 81 2.3 ESE 26 32 14 17 1015.7 1015.1 0.0
19/12:00am 25.5 25.1 21.6 79 2.6 ESE 26 30 14 16 1016.0 1015.4 0.0
 
Date/Time
EST
Temp
°C
App
Temp
°C
Dew
Point
°C
Rel
Hum
%
Delta-T
°C
Wind Press
QNH
hPa
Press
MSL
hPa
Rain since
9am
mm
Dir  Spd
km/h
Gust
km/h
Spd
kts
Gust
kts
18/11:30pm 25.6 24.7 21.5 78 2.7 ESE 28 32 15 17 1016.4 1015.9 0.0
18/11:00pm 25.6 25.0 21.9 80 2.5 SE 28 32 15 17 1016.7 1016.2 0.0
18/10:30pm 25.4 22.9 20.9 76 3.0 ESE 35 41 19 22 1016.8 1016.3 0.0
18/10:00pm 25.6 23.9 21.3 77 2.9 SE 32 35 17 19 1016.8 1016.3 0.0
18/09:30pm 25.7 23.8 21.4 77 2.9 SE 33 41 18 22 1016.8 1016.3 0.0
18/09:00pm 25.7 24.1 21.6 78 2.7 ESE 32 39 17 21 1016.7 1016.2 0.0
18/08:30pm 25.7 23.2 20.9 75 3.2 SE 35 41 19 22 1016.5 1016.0 0.0
18/08:00pm 25.6 23.4 21.5 78 2.7 SE 35 39 19 21 1016.1 1015.5 0.0
18/07:30pm 25.7 22.9 21.1 76 3.0 SE 37 44 20 24 1015.9 1015.3 0.0
18/07:00pm 25.8 23.7 21.7 78 2.7 SE 35 43 19 23 1015.7 1015.1 0.0
18/06:30pm 25.8 23.3 20.8 74 3.3 SE 35 41 19 22 1015.5 1014.9 0.0
18/06:00pm 26.1 24.5 21.5 76 3.1 SE 32 39 17 21 1015.4 1014.8 0.0
18/05:30pm 25.9 23.4 20.2 71 3.7 SE 33 37 18 20 1015.2 1014.6 0.0
18/05:00pm 26.2 23.7 20.8 72 3.6 SE 35 43 19 23 1015.1 1014.5 0.0
18/04:30pm 26.3 23.2 20.4 70 3.9 SE 37 43 20 23 1014.9 1014.3 0.0
18/04:00pm 26.5 23.1 19.9 67 4.3 SE 37 43 20 23 1015.0 1014.4 0.0
18/03:30pm 26.7 22.8 19.6 65 4.6 SE 39 43 21 23 1015.1 1014.5 0.0
18/03:00pm 26.8 23.4 20.6 69 4.1 SE 39 43 21 23 1015.3 1014.7 0.0
18/02:30pm 27.4 24.7 21.2 69 4.1 SE 37 41 20 22 1015.7 1015.1 0.0

Other formats

Comma delimited format used in spreadsheet applications
http://www.bom.gov.au/fwo/IDQ60801/IDQ60801.94584.axf

JavaScript Object Notation format (JSON) in row-major order
http://www.bom.gov.au/fwo/IDQ60801/IDQ60801.94584.json

Data quality

Most of these data are generated automatically and are frequently updated. Quality checks on data are not normally performed. It is possible for incorrect values to appear. Refer to information at About Latest Weather Observations and please check the disclaimer before using these data.